Terminal Aerodrome Forecast
Issued by NWS Grand Rapids, MI

Home | Current Version | Previous Version | Text Only | Print | Product List | Glossary On
Versions: 1 2 3 4 5 6 7 8 9 10 11 12 13 14 15 16 17
297
FTUS43 KGRR 041919 AAB
TAFGRR
TAF AMD
KGRR 041919Z 0419/0518 13008KT 2SM -SN OVC025
     FM042000 15007KT 1/2SM SN OVC015
     FM042300 20007KT 2SM -SN BR OVC009
     FM050600 25009KT 4SM BR OVC015
     FM051200 22008KT P6SM OVC025
     FM051700 22009KT P6SM BKN050=

USA.gov is the U.S. government's official web portal to all federal, state and local government web resources and services.